createdAt,value
2022-10-07T00:00:01.046Z,102627.53
2022-10-07T00:00:31.501Z,102630.55
2022-10-07T00:01:02.147Z,102627.38
2022-10-07T00:01:32.710Z,102631.06
2022-10-07T00:02:03.158Z,102626.38
2022-10-07T00:02:33.648Z,102629.72
2022-10-07T00:03:04.074Z,102628.03
2022-10-07T00:03:34.535Z,102629.20
2022-10-07T00:04:04.993Z,102629.55
2022-10-07T00:04:35.473Z,102627.71
2022-10-07T00:05:05.924Z,102630.39
2022-10-07T00:05:36.378Z,102628.53
2022-10-07T00:06:06.840Z,102632.06
2022-10-07T00:06:37.298Z,102631.91
2022-10-07T00:07:07.754Z,102629.72
2022-10-07T00:07:38.216Z,102628.88
2022-10-07T00:08:08.678Z,102626.19
2022-10-07T00:08:39.136Z,102627.02
2022-10-07T00:09:09.593Z,102627.18
2022-10-07T00:09:40.052Z,102625.16
2022-10-07T00:10:10.534Z,102632.25
2022-10-07T00:10:40.999Z,102628.70
2022-10-07T00:11:11.452Z,102629.05
2022-10-07T00:11:41.918Z,102627.18
2022-10-07T00:12:12.386Z,102627.18
2022-10-07T00:12:42.843Z,102628.55
2022-10-07T00:13:13.301Z,102626.86
2022-10-07T00:13:43.760Z,102630.57
2022-10-07T00:14:14.219Z,102628.53
2022-10-07T00:14:44.677Z,102627.20
2022-10-07T00:15:15.160Z,102628.71
2022-10-07T00:15:45.622Z,102622.47
2022-10-07T00:16:16.102Z,102624.84
2022-10-07T00:16:46.581Z,102624.84
2022-10-07T00:17:17.006Z,102624.50
2022-10-07T00:17:47.464Z,102624.17
2022-10-07T00:18:17.920Z,102624.50
2022-10-07T00:18:48.378Z,102622.81
2022-10-07T00:19:18.851Z,102623.48
2022-10-07T00:19:49.328Z,102626.02
2022-10-07T00:20:19.791Z,102625.70
2022-10-07T00:20:50.254Z,102624.34
2022-10-07T00:21:20.708Z,102625.34
2022-10-07T00:21:51.165Z,102625.69
2022-10-07T00:22:21.623Z,102626.70
2022-10-07T00:22:52.085Z,102624.66
2022-10-07T00:23:22.547Z,102625.16
2022-10-07T00:23:53.031Z,102626.02
2022-10-07T00:24:23.492Z,102622.14
2022-10-07T00:24:53.948Z,102620.95
2022-10-07T00:25:24.418Z,102623.97
2022-10-07T00:25:54.882Z,102623.16
2022-10-07T00:26:25.350Z,102618.78
2022-10-07T00:26:55.806Z,102615.40
2022-10-07T00:27:26.264Z,102618.27
2022-10-07T00:27:56.796Z,102616.77
2022-10-07T00:28:27.400Z,102614.56
2022-10-07T00:28:57.877Z,102613.23
2022-10-07T00:29:28.336Z,102615.92
2022-10-07T00:29:58.793Z,102615.40
2022-10-07T00:30:29.318Z,102613.22
2022-10-07T00:30:59.845Z,102617.27
2022-10-07T00:31:30.245Z,102616.58
2022-10-07T00:32:00.702Z,102615.92
2022-10-07T00:32:31.160Z,102618.26
2022-10-07T00:33:01.618Z,102619.44
2022-10-07T00:33:32.073Z,102618.77
2022-10-07T00:34:02.533Z,102619.60
2022-10-07T00:34:32.988Z,102618.26
2022-10-07T00:35:03.465Z,102617.43
2022-10-07T00:35:33.898Z,102614.23
2022-10-07T00:36:04.335Z,102614.56
2022-10-07T00:36:34.765Z,102609.87
2022-10-07T00:37:05.201Z,102608.34
2022-10-07T00:37:35.663Z,102608.17
2022-10-07T00:38:06.099Z,102608.86
2022-10-07T00:38:36.527Z,102604.12
2022-10-07T00:39:06.972Z,102605.64
2022-10-07T00:39:37.393Z,102609.02
2022-10-07T00:40:07.819Z,102606.98
2022-10-07T00:40:38.263Z,102610.88
2022-10-07T00:41:08.689Z,102609.52
2022-10-07T00:41:39.118Z,102609.03
2022-10-07T00:42:09.542Z,102611.06
2022-10-07T00:42:39.973Z,102611.21
2022-10-07T00:43:10.395Z,102608.70
2022-10-07T00:43:40.825Z,102609.87
2022-10-07T00:44:11.249Z,102609.18
2022-10-07T00:44:41.665Z,102608.86
2022-10-07T00:45:12.089Z,102609.35
2022-10-07T00:45:42.597Z,102610.53
2022-10-07T00:46:13.059Z,102606.16
2022-10-07T00:46:43.445Z,102604.16
2022-10-07T00:47:13.867Z,102605.31
2022-10-07T00:47:44.579Z,102603.13
2022-10-07T00:48:15.139Z,102603.95
2022-10-07T00:48:45.560Z,102604.47
2022-10-07T00:49:15.981Z,102601.28
2022-10-07T00:49:46.404Z,102601.95
2022-10-07T00:50:16.846Z,102602.29
2022-10-07T00:50:47.273Z,102602.64
2022-10-07T00:51:17.700Z,102598.61
2022-10-07T00:51:48.118Z,102598.61
2022-10-07T00:52:18.549Z,102597.56
2022-10-07T00:52:48.975Z,102599.27
2022-10-07T00:53:19.403Z,102595.38
2022-10-07T00:53:49.831Z,102598.07
2022-10-07T00:54:20.254Z,102597.56
2022-10-07T00:54:50.676Z,102597.73
2022-10-07T00:55:21.099Z,102597.06
2022-10-07T00:55:51.541Z,102598.77
2022-10-07T00:56:21.966Z,102598.41
2022-10-07T00:56:52.389Z,102599.09
2022-10-07T00:57:22.810Z,102598.77
2022-10-07T00:57:53.239Z,102597.41
2022-10-07T00:58:23.662Z,102595.91
2022-10-07T00:58:54.083Z,102596.08
2022-10-07T00:59:24.507Z,102597.91
2022-10-07T00:59:54.930Z,102595.23
2022-10-07T01:00:25.364Z,102597.41
2022-10-07T01:00:55.865Z,102591.88
2022-10-07T01:01:26.296Z,102592.03
2022-10-07T01:01:56.760Z,102592.20
2022-10-07T01:02:27.268Z,102594.89
2022-10-07T01:02:57.638Z,102591.52
2022-10-07T01:03:28.062Z,102594.71
2022-10-07T01:03:58.499Z,102589.35
2022-10-07T01:04:28.923Z,102593.21
2022-10-07T01:04:59.338Z,102590.20
2022-10-07T01:05:29.781Z,102592.86
2022-10-07T01:06:00.220Z,102594.73
2022-10-07T01:06:30.649Z,102592.69
2022-10-07T01:07:01.073Z,102598.09
2022-10-07T01:07:31.497Z,102592.69
2022-10-07T01:08:01.920Z,102595.07
2022-10-07T01:08:32.345Z,102591.69
2022-10-07T01:09:02.773Z,102588.68
2022-10-07T01:09:33.197Z,102587.84
2022-10-07T01:10:03.625Z,102590.69
2022-10-07T01:10:34.044Z,102589.31
2022-10-07T01:11:04.487Z,102588.64
2022-10-07T01:11:34.911Z,102586.30
2022-10-07T01:12:05.327Z,102584.12
2022-10-07T01:12:35.753Z,102582.08
2022-10-07T01:13:06.190Z,102581.91
2022-10-07T01:13:36.614Z,102580.09
2022-10-07T01:14:07.045Z,102576.89
2022-10-07T01:14:37.470Z,102580.09
2022-10-07T01:15:07.889Z,102576.03
2022-10-07T01:15:38.327Z,102583.28
2022-10-07T01:16:08.751Z,102583.62
2022-10-07T01:16:39.222Z,102582.27
2022-10-07T01:17:09.700Z,102582.95
2022-10-07T01:17:40.090Z,102584.97
2022-10-07T01:18:10.523Z,102577.57
2022-10-07T01:18:40.946Z,102582.11
2022-10-07T01:19:11.369Z,102580.08
2022-10-07T01:19:41.802Z,102579.25
2022-10-07T01:20:12.222Z,102579.59
2022-10-07T01:20:42.663Z,102577.73
2022-10-07T01:21:13.105Z,102576.73
2022-10-07T01:21:43.544Z,102575.88
2022-10-07T01:22:13.994Z,102575.55
2022-10-07T01:22:44.427Z,102574.53
2022-10-07T01:23:14.857Z,102574.70
2022-10-07T01:23:45.303Z,102571.66
2022-10-07T01:24:15.739Z,102571.16
2022-10-07T01:24:46.163Z,102568.62
2022-10-07T01:25:16.583Z,102571.48
2022-10-07T01:25:47.007Z,102571.48
2022-10-07T01:26:17.448Z,102569.48
2022-10-07T01:26:47.873Z,102574.53
2022-10-07T01:27:18.301Z,102570.66
2022-10-07T01:27:48.729Z,102574.20
2022-10-07T01:28:19.174Z,102574.03
2022-10-07T01:28:49.569Z,102568.62
2022-10-07T01:29:19.995Z,102570.16
2022-10-07T01:29:50.422Z,102566.45
2022-10-07T01:30:20.859Z,102564.95
2022-10-07T01:30:51.332Z,102565.77
2022-10-07T01:31:21.781Z,102564.59
2022-10-07T01:31:52.180Z,102561.91
2022-10-07T01:32:22.606Z,102563.59
2022-10-07T01:32:53.032Z,102564.61
2022-10-07T01:33:23.454Z,102560.75
2022-10-07T01:33:53.886Z,102565.80
2022-10-07T01:34:24.301Z,102561.73
2022-10-07T01:34:54.722Z,102564.78
2022-10-07T01:35:25.150Z,102563.75
2022-10-07T01:35:55.588Z,102563.25
2022-10-07T01:36:26.038Z,102561.74
2022-10-07T01:36:56.509Z,102558.70
2022-10-07T01:37:26.938Z,102560.23
2022-10-07T01:37:57.368Z,102559.73
2022-10-07T01:38:27.794Z,102558.56
2022-10-07T01:38:58.227Z,102557.55
2022-10-07T01:39:28.650Z,102558.55
2022-10-07T01:39:59.076Z,102558.55
2022-10-07T01:40:29.507Z,102560.25
2022-10-07T01:40:59.941Z,102561.91
2022-10-07T01:41:30.389Z,102557.53
2022-10-07T01:42:00.813Z,102559.38
2022-10-07T01:42:31.263Z,102557.20
2022-10-07T01:43:02.012Z,102558.22
2022-10-07T01:43:32.437Z,102558.58
2022-10-07T01:44:02.864Z,102557.88
2022-10-07T01:44:33.291Z,102558.05
2022-10-07T01:45:03.714Z,102559.08
2022-10-07T01:45:34.153Z,102560.42
2022-10-07T01:46:04.669Z,102556.71
2022-10-07T01:46:35.145Z,102556.88
2022-10-07T01:47:05.562Z,102556.38
2022-10-07T01:47:35.984Z,102551.65
2022-10-07T01:48:06.440Z,102554.86
2022-10-07T01:48:36.864Z,102550.33
2022-10-07T01:49:07.292Z,102547.29
2022-10-07T01:49:37.717Z,102546.46
2022-10-07T01:50:08.136Z,102545.26
2022-10-07T01:50:38.559Z,102544.44
2022-10-07T01:51:09.001Z,102544.25
2022-10-07T01:51:39.441Z,102544.44
2022-10-07T01:52:09.876Z,102537.55
2022-10-07T01:52:40.304Z,102539.56
2022-10-07T01:53:10.729Z,102541.56
2022-10-07T01:53:41.153Z,102536.88
2022-10-07T01:54:11.586Z,102543.08
2022-10-07T01:54:42.021Z,102537.20
2022-10-07T01:55:12.439Z,102540.23
2022-10-07T01:55:42.865Z,102539.91
2022-10-07T01:56:13.285Z,102538.37
2022-10-07T01:56:43.720Z,102540.57
2022-10-07T01:57:14.142Z,102537.88
2022-10-07T01:57:44.939Z,102540.05
2022-10-07T01:58:15.510Z,102539.38
2022-10-07T01:58:45.932Z,102535.67
2022-10-07T01:59:16.357Z,102534.16
2022-10-07T01:59:46.778Z,102537.55
2022-10-07T02:00:17.202Z,102536.21
2022-10-07T02:00:47.624Z,102535.34
2022-10-07T02:01:18.097Z,102536.88
2022-10-07T02:01:48.704Z,102535.34
2022-10-07T02:02:19.113Z,102537.90
2022-10-07T02:02:49.533Z,102538.21
2022-10-07T02:03:19.999Z,102539.41
2022-10-07T02:03:50.638Z,102532.33
2022-10-07T02:04:21.050Z,102531.83
2022-10-07T02:04:51.476Z,102529.98
2022-10-07T02:05:21.913Z,102531.47
2022-10-07T02:05:52.322Z,102523.23
2022-10-07T02:06:22.766Z,102526.28
2022-10-07T02:06:53.197Z,102523.91
2022-10-07T02:07:23.620Z,102527.11
2022-10-07T02:07:54.050Z,102527.13
2022-10-07T02:08:24.479Z,102524.42
2022-10-07T02:08:54.905Z,102527.30
2022-10-07T02:09:25.318Z,102525.94
2022-10-07T02:09:55.740Z,102521.39
2022-10-07T02:10:26.170Z,102524.45
2022-10-07T02:10:56.592Z,102520.58
2022-10-07T02:11:27.016Z,102520.08
2022-10-07T02:11:57.455Z,102520.24
2022-10-07T02:12:27.883Z,102519.20
2022-10-07T02:12:58.358Z,102520.73
2022-10-07T02:13:28.778Z,102519.39
2022-10-07T02:13:59.202Z,102519.04
2022-10-07T02:14:29.652Z,102519.22
2022-10-07T02:15:00.091Z,102518.73
2022-10-07T02:15:30.587Z,102514.19
2022-10-07T02:16:01.007Z,102517.03
2022-10-07T02:16:31.407Z,102513.34
2022-10-07T02:17:01.845Z,102514.52
2022-10-07T02:17:32.272Z,102521.22
2022-10-07T02:18:02.695Z,102516.02
2022-10-07T02:18:33.115Z,102514.00
2022-10-07T02:19:03.566Z,102512.66
2022-10-07T02:19:33.986Z,102515.84
2022-10-07T02:20:04.408Z,102515.00
2022-10-07T02:20:34.836Z,102514.84
2022-10-07T02:21:05.264Z,102514.34
2022-10-07T02:21:35.708Z,102512.13
2022-10-07T02:22:06.153Z,102510.28
2022-10-07T02:22:36.585Z,102506.25
2022-10-07T02:23:07.006Z,102507.10
2022-10-07T02:23:37.436Z,102509.80
2022-10-07T02:24:07.870Z,102504.06
2022-10-07T02:24:38.327Z,102504.58
2022-10-07T02:25:08.729Z,102505.27
2022-10-07T02:25:39.199Z,102506.75
2022-10-07T02:26:09.626Z,102507.78
2022-10-07T02:26:40.049Z,102508.45
2022-10-07T02:27:10.487Z,102509.65
2022-10-07T02:27:40.970Z,102512.65
2022-10-07T02:28:11.445Z,102510.95
2022-10-07T02:28:41.942Z,102512.98
2022-10-07T02:29:12.373Z,102510.81
2022-10-07T02:29:42.820Z,102509.29
2022-10-07T02:30:13.224Z,102510.80
2022-10-07T02:30:43.699Z,102502.41
2022-10-07T02:31:14.122Z,102505.78
2022-10-07T02:31:44.511Z,102505.61
2022-10-07T02:32:14.952Z,102502.57
2022-10-07T02:32:45.373Z,102504.06
2022-10-07T02:33:15.797Z,102502.06
2022-10-07T02:33:46.221Z,102504.92
2022-10-07T02:34:19.991Z,102502.25
2022-10-07T02:34:50.793Z,102503.06
2022-10-07T02:35:21.187Z,102504.42
2022-10-07T02:35:51.615Z,102502.90
2022-10-07T02:36:22.088Z,102504.41
2022-10-07T02:36:52.633Z,102505.59
2022-10-07T02:37:23.001Z,102505.24
2022-10-07T02:37:53.427Z,102505.25
2022-10-07T02:38:23.858Z,102504.26
2022-10-07T02:38:54.279Z,102504.23
2022-10-07T02:39:24.699Z,102503.22
2022-10-07T02:39:55.131Z,102504.27
2022-10-07T02:40:25.553Z,102502.23
2022-10-07T02:40:55.981Z,102498.86
2022-10-07T02:41:26.451Z,102504.44
2022-10-07T02:41:56.824Z,102497.70
2022-10-07T02:42:27.276Z,102498.53
2022-10-07T02:42:57.700Z,102498.53
2022-10-07T02:43:28.131Z,102496.52
2022-10-07T02:43:58.548Z,102496.51
2022-10-07T02:44:28.973Z,102495.84
2022-10-07T02:44:59.394Z,102498.36
2022-10-07T02:45:29.820Z,102494.67
2022-10-07T02:46:00.337Z,102497.88
2022-10-07T02:46:30.734Z,102493.14
2022-10-07T02:47:01.144Z,102495.51
2022-10-07T02:47:31.581Z,102494.81
2022-10-07T02:48:02.013Z,102491.79
2022-10-07T02:48:32.436Z,102492.12
2022-10-07T02:49:02.859Z,102497.02
2022-10-07T02:49:33.292Z,102490.29
2022-10-07T02:50:03.712Z,102491.63
2022-10-07T02:50:34.141Z,102491.95
2022-10-07T02:51:04.560Z,102489.77
2022-10-07T02:51:34.983Z,102492.47
2022-10-07T02:52:05.478Z,102493.47
2022-10-07T02:52:35.887Z,102492.81
2022-10-07T02:53:06.311Z,102493.98
2022-10-07T02:53:36.729Z,102492.82
2022-10-07T02:54:07.152Z,102487.08
2022-10-07T02:54:37.592Z,102485.91
2022-10-07T02:55:08.017Z,102488.95
2022-10-07T02:55:38.453Z,102487.94
2022-10-07T02:56:08.881Z,102484.24
2022-10-07T02:56:39.297Z,102483.41
2022-10-07T02:57:09.721Z,102487.42
2022-10-07T02:57:40.167Z,102487.44
2022-10-07T02:58:10.584Z,102486.59
2022-10-07T02:58:41.005Z,102480.72
2022-10-07T02:59:11.444Z,102486.91
2022-10-07T02:59:41.863Z,102486.75
2022-10-07T03:00:12.286Z,102487.61
2022-10-07T03:00:42.716Z,102488.11
2022-10-07T03:01:13.159Z,102486.75
2022-10-07T03:01:43.590Z,102485.75
2022-10-07T03:02:14.000Z,102486.27
2022-10-07T03:02:44.434Z,102486.92
2022-10-07T03:03:14.913Z,102483.91
2022-10-07T03:03:45.457Z,102484.08
2022-10-07T03:04:15.856Z,102483.88
2022-10-07T03:04:46.280Z,102485.59
2022-10-07T03:05:16.703Z,102481.88
2022-10-07T03:05:47.135Z,102484.08
2022-10-07T03:06:17.557Z,102483.88
2022-10-07T03:06:47.983Z,102482.73
2022-10-07T03:07:18.441Z,102481.55
2022-10-07T03:07:48.866Z,102482.22
2022-10-07T03:08:19.289Z,102481.88
2022-10-07T03:08:49.710Z,102479.86
2022-10-07T03:09:20.130Z,102484.41
2022-10-07T03:09:50.554Z,102480.03
2022-10-07T03:10:20.978Z,102478.69
2022-10-07T03:10:51.421Z,102479.34
2022-10-07T03:11:21.856Z,102476.83
2022-10-07T03:11:52.292Z,102482.73
2022-10-07T03:12:22.703Z,102481.70
2022-10-07T03:12:53.143Z,102480.05
2022-10-07T03:13:23.556Z,102479.70
2022-10-07T03:13:54.415Z,102476.52
2022-10-07T03:14:24.852Z,102477.83
2022-10-07T03:14:55.267Z,102474.47
2022-10-07T03:15:25.692Z,102476.52
2022-10-07T03:15:56.153Z,102476.68
2022-10-07T03:16:26.597Z,102473.14
2022-10-07T03:16:56.978Z,102474.97
2022-10-07T03:17:27.408Z,102475.81
2022-10-07T03:17:57.856Z,102477.17
2022-10-07T03:18:28.446Z,102474.81
2022-10-07T03:18:58.975Z,102472.64
2022-10-07T03:19:29.404Z,102474.48
2022-10-07T03:19:59.827Z,102471.78
2022-10-07T03:20:30.254Z,102470.62
2022-10-07T03:21:00.701Z,102472.95
2022-10-07T03:21:31.133Z,102468.27
2022-10-07T03:22:01.556Z,102469.95
2022-10-07T03:22:32.005Z,102472.79
2022-10-07T03:23:02.558Z,102469.11
2022-10-07T03:23:32.969Z,102470.44
2022-10-07T03:24:03.390Z,102466.08
2022-10-07T03:24:33.818Z,102469.77
2022-10-07T03:25:04.239Z,102466.58
2022-10-07T03:25:34.664Z,102467.25
2022-10-07T03:26:05.089Z,102464.73
2022-10-07T03:26:35.511Z,102462.55
2022-10-07T03:27:05.935Z,102460.86
2022-10-07T03:27:36.386Z,102463.70
2022-10-07T03:28:06.853Z,102463.04
2022-10-07T03:28:37.324Z,102464.38
2022-10-07T03:29:07.851Z,102461.88
2022-10-07T03:29:38.274Z,102463.05
2022-10-07T03:30:08.709Z,102466.91
2022-10-07T03:30:39.131Z,102465.23
2022-10-07T03:31:09.626Z,102468.25
2022-10-07T03:31:40.082Z,102467.25
2022-10-07T03:32:10.468Z,102468.09
2022-10-07T03:32:40.905Z,102468.08
2022-10-07T03:33:11.358Z,102464.20
2022-10-07T03:33:41.771Z,102465.20
2022-10-07T03:34:12.190Z,102464.69
2022-10-07T03:34:42.615Z,102463.03
2022-10-07T03:35:13.046Z,102461.85
2022-10-07T03:35:43.469Z,102460.68
2022-10-07T03:36:13.905Z,102463.19
2022-10-07T03:36:44.332Z,102461.52
2022-10-07T03:37:14.764Z,102465.72
2022-10-07T03:37:45.631Z,102462.20
2022-10-07T03:38:16.446Z,102462.86
2022-10-07T03:38:46.884Z,102463.86
2022-10-07T03:39:17.347Z,102460.36
2022-10-07T03:39:47.771Z,102460.03
2022-10-07T03:40:18.188Z,102459.52
2022-10-07T03:40:48.615Z,102458.33
2022-10-07T03:41:19.063Z,102454.14
2022-10-07T03:41:49.489Z,102456.65
2022-10-07T03:42:19.915Z,102456.67
2022-10-07T03:42:50.349Z,102454.30
2022-10-07T03:43:20.786Z,102449.61
2022-10-07T03:43:51.219Z,102451.62
2022-10-07T03:44:21.654Z,102451.78
2022-10-07T03:44:52.083Z,102445.38
2022-10-07T03:45:22.500Z,102442.38
2022-10-07T03:45:52.923Z,102443.88
2022-10-07T03:46:23.402Z,102445.73
2022-10-07T03:46:53.834Z,102445.39
2022-10-07T03:47:24.520Z,102443.55
2022-10-07T03:47:54.940Z,102442.88
2022-10-07T03:48:25.379Z,102444.06
2022-10-07T03:48:55.802Z,102440.17
2022-10-07T03:49:26.226Z,102442.36
2022-10-07T03:49:56.698Z,102440.36
2022-10-07T03:50:27.122Z,102440.36
2022-10-07T03:50:57.547Z,102445.55
2022-10-07T03:51:27.968Z,102441.03
2022-10-07T03:51:58.391Z,102441.69
2022-10-07T03:52:28.823Z,102437.66
2022-10-07T03:52:59.274Z,102437.50
2022-10-07T03:53:29.883Z,102436.64
2022-10-07T03:54:00.296Z,102440.00
2022-10-07T03:54:30.719Z,102438.84
2022-10-07T03:55:01.156Z,102437.14
2022-10-07T03:55:31.580Z,102442.38
2022-10-07T03:56:02.001Z,102439.51
2022-10-07T03:56:32.423Z,102440.69
2022-10-07T03:57:02.847Z,102435.80
2022-10-07T03:57:33.276Z,102440.00
2022-10-07T03:58:03.700Z,102439.69
2022-10-07T03:58:34.136Z,102437.65
2022-10-07T03:59:04.565Z,102440.70
2022-10-07T03:59:34.982Z,102440.18
2022-10-07T04:00:05.412Z,102438.84
2022-10-07T04:00:35.829Z,102441.36
2022-10-07T04:01:06.249Z,102441.19
2022-10-07T04:01:36.708Z,102438.48
2022-10-07T04:02:07.201Z,102440.00
2022-10-07T04:02:37.635Z,102438.31
2022-10-07T04:03:08.100Z,102441.53
2022-10-07T04:03:38.544Z,102439.67
2022-10-07T04:04:08.974Z,102436.47
2022-10-07T04:04:39.402Z,102438.84
2022-10-07T04:05:09.824Z,102435.97
2022-10-07T04:05:40.248Z,102436.65
2022-10-07T04:06:10.671Z,102432.60
2022-10-07T04:06:41.092Z,102428.41
2022-10-07T04:07:11.514Z,102431.26
2022-10-07T04:07:42.315Z,102429.42
2022-10-07T04:08:12.878Z,102431.10
2022-10-07T04:08:43.299Z,102431.27
2022-10-07T04:09:13.717Z,102427.90
2022-10-07T04:09:44.140Z,102430.75
2022-10-07T04:10:14.571Z,102433.61
2022-10-07T04:10:45.002Z,102428.92
2022-10-07T04:11:15.428Z,102425.70
2022-10-07T04:11:45.860Z,102429.43
2022-10-07T04:12:16.289Z,102425.70
2022-10-07T04:12:46.723Z,102429.25
2022-10-07T04:13:17.148Z,102429.08
2022-10-07T04:13:47.586Z,102427.41
2022-10-07T04:14:18.015Z,102427.41
2022-10-07T04:14:48.438Z,102427.06
2022-10-07T04:15:18.872Z,102428.22
2022-10-07T04:15:49.362Z,102427.72
2022-10-07T04:16:19.840Z,102428.41
2022-10-07T04:16:50.344Z,102428.39
2022-10-07T04:17:20.718Z,102426.38
2022-10-07T04:17:51.142Z,102426.55
2022-10-07T04:18:21.570Z,102425.38
2022-10-07T04:18:52.017Z,102427.23
2022-10-07T04:19:22.459Z,102425.36
2022-10-07T04:19:52.877Z,102428.72
2022-10-07T04:20:23.321Z,102426.56
2022-10-07T04:20:53.736Z,102426.38
2022-10-07T04:21:24.163Z,102424.03
2022-10-07T04:21:54.583Z,102425.20
2022-10-07T04:22:25.004Z,102422.17
2022-10-07T04:22:55.426Z,102427.21
2022-10-07T04:23:25.866Z,102422.53
2022-10-07T04:23:56.314Z,102425.72
2022-10-07T04:24:26.735Z,102427.55
2022-10-07T04:24:57.176Z,102424.37
2022-10-07T04:25:27.602Z,102427.91
2022-10-07T04:25:58.023Z,102423.19
2022-10-07T04:26:28.448Z,102426.90
2022-10-07T04:26:58.888Z,102424.36
2022-10-07T04:27:50.714Z,102423.36
2022-10-07T04:28:05.369Z,102423.17
2022-10-07T04:28:36.193Z,102425.55
2022-10-07T04:29:06.615Z,102423.01
2022-10-07T04:29:39.245Z,102423.02
2022-10-07T04:30:09.741Z,102424.20
2022-10-07T04:30:40.180Z,102421.66
2022-10-07T04:31:10.643Z,102418.81
2022-10-07T04:31:41.065Z,102421.50
2022-10-07T04:32:11.447Z,102419.50
2022-10-07T04:32:41.873Z,102419.84
2022-10-07T04:33:12.294Z,102418.49
2022-10-07T04:33:42.718Z,102419.50
2022-10-07T04:34:13.160Z,102422.00
2022-10-07T04:34:43.622Z,102418.98
2022-10-07T04:35:14.030Z,102419.83
2022-10-07T04:35:44.452Z,102420.34
2022-10-07T04:36:14.871Z,102416.79
2022-10-07T04:36:45.309Z,102419.31
2022-10-07T04:37:15.739Z,102413.77
2022-10-07T04:37:46.588Z,102413.94
2022-10-07T04:38:17.262Z,102410.73
2022-10-07T04:38:47.700Z,102416.28
2022-10-07T04:39:18.126Z,102414.60
2022-10-07T04:40:00.318Z,102414.11
2022-10-07T04:40:23.885Z,102407.20
2022-10-07T04:40:54.312Z,102407.88
2022-10-07T04:41:24.734Z,102405.20
2022-10-07T04:41:55.175Z,102407.38
2022-10-07T04:42:25.600Z,102402.52
2022-10-07T04:42:56.027Z,102404.70
2022-10-07T04:43:26.449Z,102401.84
2022-10-07T04:43:58.125Z,102399.82
2022-10-07T04:44:28.603Z,102396.64
2022-10-07T04:44:59.026Z,102391.57
2022-10-07T04:45:29.457Z,102394.45
2022-10-07T04:45:59.887Z,102396.78
2022-10-07T04:46:30.355Z,102391.25
2022-10-07T04:47:00.803Z,102393.11
2022-10-07T04:47:31.187Z,102395.30
2022-10-07T04:48:01.611Z,102395.94
2022-10-07T04:48:32.037Z,102392.75
2022-10-07T04:49:02.463Z,102395.44
2022-10-07T04:49:32.909Z,102391.59
2022-10-07T04:50:03.332Z,102400.14
2022-10-07T04:50:33.761Z,102397.29
2022-10-07T04:51:04.187Z,102399.66
2022-10-07T04:51:34.603Z,102401.17
2022-10-07T04:52:05.026Z,102395.94
2022-10-07T04:52:35.448Z,102397.31
2022-10-07T04:53:05.914Z,102399.30
2022-10-07T04:53:36.326Z,102398.81
2022-10-07T04:54:06.767Z,102398.98
2022-10-07T04:54:37.188Z,102397.80
2022-10-07T04:55:07.610Z,102391.39
2022-10-07T04:55:38.033Z,102399.66
2022-10-07T04:56:08.466Z,102393.27
2022-10-07T04:56:38.891Z,102392.09
2022-10-07T04:57:09.316Z,102390.75
2022-10-07T04:57:39.742Z,102388.20
2022-10-07T04:58:10.168Z,102389.72
2022-10-07T04:58:40.590Z,102393.61
2022-10-07T04:59:11.016Z,102389.56
2022-10-07T04:59:43.039Z,102388.38
2022-10-07T05:00:13.576Z,102393.78
2022-10-07T05:00:44.060Z,102393.43
2022-10-07T05:01:14.485Z,102389.72
2022-10-07T05:01:44.947Z,102391.77
2022-10-07T05:02:15.389Z,102388.72
2022-10-07T05:02:45.769Z,102391.59
2022-10-07T05:03:16.193Z,102396.30
2022-10-07T05:03:46.644Z,102391.08
2022-10-07T05:04:17.111Z,102394.27
2022-10-07T05:04:47.551Z,102391.41
2022-10-07T05:05:17.982Z,102395.62
2022-10-07T05:05:48.396Z,102391.23
2022-10-07T05:06:18.814Z,102395.28
2022-10-07T05:06:49.239Z,102391.23
2022-10-07T05:07:19.667Z,102392.91
2022-10-07T05:07:50.086Z,102387.19
2022-10-07T05:08:20.505Z,102387.89
2022-10-07T05:08:50.938Z,102387.72
2022-10-07T05:09:21.371Z,102386.86
2022-10-07T05:09:51.803Z,102386.19
2022-10-07T05:10:22.228Z,102383.17
2022-10-07T05:10:52.666Z,102377.45
2022-10-07T05:11:23.087Z,102381.17
2022-10-07T05:11:53.522Z,102382.34
2022-10-07T05:12:23.965Z,102381.82
2022-10-07T05:12:56.225Z,102377.12
2022-10-07T05:13:26.745Z,102380.66
2022-10-07T05:13:57.176Z,102379.14
2022-10-07T05:14:27.607Z,102381.82
2022-10-07T05:14:58.058Z,102377.12
2022-10-07T05:15:28.479Z,102378.80
2022-10-07T05:15:58.941Z,102378.31
2022-10-07T05:16:29.463Z,102376.27
2022-10-07T05:16:59.871Z,102374.94
2022-10-07T05:17:30.294Z,102372.06
2022-10-07T05:18:00.715Z,102377.12
2022-10-07T05:18:31.142Z,102373.25
2022-10-07T05:19:01.615Z,102373.93
2022-10-07T05:19:32.040Z,102372.59
2022-10-07T05:20:02.482Z,102375.95
2022-10-07T05:20:32.902Z,102367.71
2022-10-07T05:21:03.342Z,102369.39
2022-10-07T05:21:33.764Z,102369.06
2022-10-07T05:22:04.191Z,102368.38
2022-10-07T05:22:34.615Z,102368.38
2022-10-07T05:23:05.043Z,102365.70
2022-10-07T05:23:35.471Z,102370.05
2022-10-07T05:24:05.888Z,102369.73
2022-10-07T05:24:36.328Z,102368.70
2022-10-07T05:25:06.770Z,102371.58
2022-10-07T05:25:37.197Z,102370.23
2022-10-07T05:26:07.619Z,102367.05
2022-10-07T05:26:38.046Z,102368.89
2022-10-07T05:27:08.464Z,102368.89
2022-10-07T05:27:38.894Z,102369.54
2022-10-07T05:28:09.352Z,102368.72
2022-10-07T05:28:39.874Z,102365.02
2022-10-07T05:29:10.317Z,102366.53
2022-10-07T05:29:40.742Z,102365.86
2022-10-07T05:30:11.178Z,102367.20
2022-10-07T05:30:41.608Z,102365.84
2022-10-07T05:31:12.115Z,102361.48
2022-10-07T05:31:42.751Z,102362.98
2022-10-07T05:32:13.182Z,102360.98
2022-10-07T05:32:43.634Z,102364.17
2022-10-07T05:33:14.032Z,102357.45
2022-10-07T05:33:44.498Z,102359.45
2022-10-07T05:34:14.910Z,102360.47
2022-10-07T05:34:45.334Z,102358.12
2022-10-07T05:35:15.759Z,102362.98
2022-10-07T05:35:46.213Z,102358.97
2022-10-07T05:36:16.659Z,102359.48
2022-10-07T05:36:47.091Z,102356.45
2022-10-07T05:37:17.520Z,102357.80
2022-10-07T05:37:51.098Z,102355.11
2022-10-07T05:38:21.608Z,102354.77
2022-10-07T05:38:52.054Z,102356.77
2022-10-07T05:39:22.499Z,102355.25
2022-10-07T05:39:52.924Z,102355.92
2022-10-07T05:40:23.328Z,102353.75
2022-10-07T05:40:53.754Z,102356.27
2022-10-07T05:41:24.175Z,102356.44
2022-10-07T05:41:54.606Z,102356.95
2022-10-07T05:42:25.028Z,102354.25
2022-10-07T05:42:55.447Z,102355.77
2022-10-07T05:43:25.875Z,102353.91
2022-10-07T05:43:56.332Z,102354.25
2022-10-07T05:44:26.753Z,102358.95
2022-10-07T05:44:57.195Z,102356.28
2022-10-07T05:45:27.687Z,102356.10
2022-10-07T05:45:58.112Z,102351.58
2022-10-07T05:46:28.521Z,102352.39
2022-10-07T05:46:58.944Z,102354.09
2022-10-07T05:47:29.368Z,102350.05